Time,TemperatureF,DewpointF,PressureIn,WindDirection,WindDirectionDegrees,WindSpeedMPH,WindSpeedGustMPH,Humidity,HourlyPrecipIn,Conditions,Clouds,dailyrainin,SoftwareType,DateUTC
2013-11-28 00:07:00,16.5,12.0,30.28,NE,43,5.0,19.0,83,0.00,,,0.00,weatherlink.com 1.10,2013-11-28 05:07:00,
2013-11-28 00:22:00,16.4,12.0,30.30,NE,34,4.0,17.0,83,0.00,,,0.00,weatherlink.com 1.10,2013-11-28 05:22:00,
2013-11-28 00:37:00,16.2,12.0,30.29,NNE,19,2.0,17.0,83,0.00,,,0.00,weatherlink.com 1.10,2013-11-28 05:37:00,
2013-11-28 00:52:00,16.1,12.0,30.30,NW,314,3.0,18.0,83,0.00,,,0.00,weatherlink.com 1.10,2013-11-28 05:52:00,
2013-11-28 01:06:00,15.9,12.0,30.31,WNW,301,4.0,14.0,83,0.00,,,0.00,weatherlink.com 1.10,2013-11-28 06:06:00,
2013-11-28 01:21:00,16.2,12.0,30.32,NNE,26,16.0,19.0,84,0.00,,,0.00,weatherlink.com 1.10,2013-11-28 06:21:00,
2013-11-28 01:37:00,16.1,12.0,30.32,North,5,5.0,14.0,85,0.00,,,0.00,weatherlink.com 1.10,2013-11-28 06:37:00,
2013-11-28 01:52:00,16.1,12.0,30.34,North,5,10.0,18.0,85,0.00,,,0.00,weatherlink.com 1.10,2013-11-28 06:52:00,
2013-11-28 02:07:00,16.0,13.0,30.36,North,10,6.0,12.0,86,0.00,,,0.00,weatherlink.com 1.10,2013-11-28 07:07:00,
2013-11-28 02:22:00,15.7,12.0,30.37,NW,317,5.0,11.0,85,0.00,,,0.00,weatherlink.com 1.10,2013-11-28 07:22:00,
2013-11-28 02:37:00,15.7,12.0,30.37,SW,225,2.0,11.0,86,0.00,,,0.00,weatherlink.com 1.10,2013-11-28 07:37:00,
2013-11-28 02:52:00,15.6,12.0,30.38,North,355,4.0,14.0,86,0.00,,,0.00,weatherlink.com 1.10,2013-11-28 07:52:00,
2013-11-28 03:07:00,15.6,12.0,30.38,NNW,344,7.0,15.0,86,0.00,,,0.00,weatherlink.com 1.10,2013-11-28 08:07:00,
2013-11-28 03:22:00,15.5,12.0,30.39,North,5,6.0,20.0,86,0.00,,,0.00,weatherlink.com 1.10,2013-11-28 08:22:00,
2013-11-28 03:37:00,15.3,12.0,30.39,North,350,7.0,12.0,86,0.00,,,0.00,weatherlink.com 1.10,2013-11-28 08:37:00,
2013-11-28 03:52:00,15.1,12.0,30.39,North,355,13.0,15.0,87,0.00,,,0.00,weatherlink.com 1.10,2013-11-28 08:52:00,
2013-11-28 04:07:00,15.0,12.0,30.39,NNW,340,6.0,15.0,87,0.00,,,0.00,weatherlink.com 1.10,2013-11-28 09:07:00,
2013-11-28 04:22:00,15.0,12.0,30.40,NNW,336,13.0,18.0,86,0.00,,,0.00,weatherlink.com 1.10,2013-11-28 09:22:00,
2013-11-28 04:37:00,14.9,12.0,30.41,North,355,7.0,16.0,87,0.00,,,0.00,weatherlink.com 1.10,2013-11-28 09:37:00,
2013-11-28 04:52:00,15.0,12.0,30.42,North,360,5.0,16.0,86,0.00,,,0.00,weatherlink.com 1.10,2013-11-28 09:52:00,
2013-11-28 05:07:00,14.9,12.0,30.43,North,349,7.0,16.0,86,0.00,,,0.00,weatherlink.com 1.10,2013-11-28 10:07:00,
2013-11-28 05:22:00,14.7,12.0,30.44,North,355,9.0,20.0,87,0.00,,,0.00,weatherlink.com 1.10,2013-11-28 10:22:00,
2013-11-28 05:37:00,14.6,11.0,30.45,North,5,10.0,18.0,87,0.00,,,0.00,weatherlink.com 1.10,2013-11-28 10:37:00,
2013-11-28 05:52:00,14.6,11.0,30.46,North,5,9.0,18.0,87,0.00,,,0.00,weatherlink.com 1.10,2013-11-28 10:52:00,
2013-11-28 06:07:00,14.6,11.0,30.46,North,355,11.0,16.0,87,0.00,,,0.00,weatherlink.com 1.10,2013-11-28 11:07:00,
2013-11-28 06:22:00,14.5,11.0,30.48,North,355,9.0,17.0,87,0.00,,,0.00,weatherlink.com 1.10,2013-11-28 11:22:00,
2013-11-28 06:37:00,14.6,12.0,30.49,North,350,10.0,19.0,88,0.00,,,0.00,weatherlink.com 1.10,2013-11-28 11:37:00,
2013-11-28 06:52:00,14.4,11.0,30.50,North,360,14.0,16.0,87,0.00,,,0.00,weatherlink.com 1.10,2013-11-28 11:52:00,
2013-11-28 07:07:00,14.4,11.0,30.51,North,11,13.0,19.0,87,0.00,,,0.00,weatherlink.com 1.10,2013-11-28 12:07:00,
2013-11-28 07:22:00,14.9,12.0,30.51,North,360,12.0,22.0,86,0.00,,,0.00,weatherlink.com 1.10,2013-11-28 12:22:00,
2013-11-28 07:37:00,15.0,12.0,30.53,North,5,9.0,19.0,86,0.00,,,0.00,weatherlink.com 1.10,2013-11-28 12:37:00,
2013-11-28 07:53:00,15.4,12.0,30.53,North,9,11.0,15.0,86,0.00,,,0.00,weatherlink.com 1.10,2013-11-28 12:53:00,
2013-11-28 08:08:00,16.2,13.0,30.54,NNE,30,9.0,15.0,85,0.00,,,0.00,weatherlink.com 1.10,2013-11-28 13:08:00,
2013-11-28 08:23:00,17.1,13.0,30.56,North,10,8.0,14.0,83,0.00,,,0.00,weatherlink.com 1.10,2013-11-28 13:23:00,
2013-11-28 08:38:00,18.1,14.0,30.56,NNE,19,9.0,14.0,82,0.00,,,0.00,weatherlink.com 1.10,2013-11-28 13:38:00,
2013-11-28 08:53:00,18.9,13.0,30.57,NNE,25,9.0,17.0,79,0.00,,,0.00,weatherlink.com 1.10,2013-11-28 13:53:00,
2013-11-28 09:08:00,19.4,14.0,30.58,NW,324,8.0,13.0,79,0.00,,,0.00,weatherlink.com 1.10,2013-11-28 14:08:00,
2013-11-28 09:23:00,20.5,14.0,30.59,NNW,331,6.0,13.0,77,0.00,,,0.00,weatherlink.com 1.10,2013-11-28 14:23:00,
2013-11-28 09:38:00,22.9,16.0,30.59,NNW,341,2.0,10.0,74,0.00,,,0.00,weatherlink.com 1.10,2013-11-28 14:38:00,
2013-11-28 09:53:00,24.8,16.0,30.60,North,355,4.0,11.0,70,0.00,,,0.00,weatherlink.com 1.10,2013-11-28 14:53:00,
2013-11-28 10:08:00,26.7,18.0,30.61,North,360,2.0,7.0,69,0.00,,,0.00,weatherlink.com 1.10,2013-11-28 15:08:00,
2013-11-28 10:23:00,28.6,18.0,30.62,North,5,1.0,5.0,64,0.00,,,0.00,weatherlink.com 1.10,2013-11-28 15:23:00,
2013-11-28 10:38:00,30.3,15.0,30.62,South,173,4.0,4.0,54,0.00,,,0.00,weatherlink.com 1.10,2013-11-28 15:38:00,
2013-11-28 10:53:00,33.7,18.0,30.62,South,172,4.0,5.0,53,0.00,,,0.00,weatherlink.com 1.10,2013-11-28 15:53:00,
2013-11-28 11:08:00,34.4,14.0,30.62,SSE,157,2.0,6.0,43,0.00,,,0.00,weatherlink.com 1.10,2013-11-28 16:08:00,
2013-11-28 11:23:00,34.6,14.0,30.62,SSE,167,1.0,5.0,42,0.00,,,0.00,weatherlink.com 1.10,2013-11-28 16:23:00,
2013-11-28 11:38:00,35.9,15.0,30.62,SW,216,1.0,6.0,43,0.00,,,0.00,weatherlink.com 1.10,2013-11-28 16:38:00,
2013-11-28 11:53:00,36.2,16.0,30.61,SE,132,2.0,5.0,44,0.00,,,0.00,weatherlink.com 1.10,2013-11-28 16:53:00,
2013-11-28 12:09:00,36.8,17.0,30.61,ESE,113,3.0,4.0,44,0.01,,,0.01,weatherlink.com 1.10,2013-11-28 17:09:00,
2013-11-28 12:24:00,38.0,18.0,30.61,SSW,202,3.0,6.0,44,0.01,,,0.01,weatherlink.com 1.10,2013-11-28 17:24:00,
2013-11-28 12:39:00,38.1,18.0,30.61,SSW,200,3.0,6.0,45,0.02,,,0.02,weatherlink.com 1.10,2013-11-28 17:39:00,
2013-11-28 12:54:00,39.0,18.0,30.60,South,177,2.0,4.0,43,0.02,,,0.02,weatherlink.com 1.10,2013-11-28 17:54:00,
2013-11-28 13:08:00,39.1,18.0,30.60,SE,129,1.0,4.0,42,0.01,,,0.02,weatherlink.com 1.10,2013-11-28 18:08:00,
2013-11-28 13:23:00,39.1,18.0,30.60,SE,137,3.0,3.0,42,0.01,,,0.02,weatherlink.com 1.10,2013-11-28 18:23:00,
2013-11-28 13:38:00,39.3,17.0,30.59,ESE,118,2.0,4.0,40,0.00,,,0.02,weatherlink.com 1.10,2013-11-28 18:38:00,
2013-11-28 13:54:00,40.0,18.0,30.60,SSE,155,1.0,3.0,42,0.00,,,0.02,weatherlink.com 1.10,2013-11-28 18:54:00,
2013-11-28 14:09:00,39.7,19.0,30.59,SSE,160,1.0,5.0,43,0.00,,,0.02,weatherlink.com 1.10,2013-11-28 19:09:00,
2013-11-28 14:24:00,40.3,18.0,30.59,ESE,109,1.0,5.0,41,0.00,,,0.02,weatherlink.com 1.10,2013-11-28 19:24:00,
2013-11-28 14:39:00,39.2,19.0,30.59,SSE,151,2.0,4.0,44,0.00,,,0.02,weatherlink.com 1.10,2013-11-28 19:39:00,
2013-11-28 14:54:00,39.2,19.0,30.59,SE,138,3.0,6.0,45,0.00,,,0.02,weatherlink.com 1.10,2013-11-28 19:54:00,
2013-11-28 15:09:00,39.7,20.0,30.59,SE,138,3.0,5.0,45,0.00,,,0.02,weatherlink.com 1.10,2013-11-28 20:09:00,
2013-11-28 15:24:00,38.8,19.0,30.60,SE,138,3.0,6.0,46,0.00,,,0.02,weatherlink.com 1.10,2013-11-28 20:24:00,
2013-11-28 15:39:00,38.5,20.0,30.61,SE,139,2.0,6.0,48,0.00,,,0.02,weatherlink.com 1.10,2013-11-28 20:39:00,
2013-11-28 15:55:00,38.6,20.0,30.61,SSE,149,2.0,5.0,47,0.00,,,0.02,weatherlink.com 1.10,2013-11-28 20:55:00,
2013-11-28 16:09:00,37.9,21.0,30.61,SE,142,3.0,5.0,50,0.00,,,0.02,weatherlink.com 1.10,2013-11-28 21:09:00,
2013-11-28 16:24:00,37.1,22.0,30.61,South,169,1.0,4.0,54,0.00,,,0.02,weatherlink.com 1.10,2013-11-28 21:24:00,
2013-11-28 16:39:00,36.7,21.0,30.61,South,191,3.0,4.0,53,0.00,,,0.02,weatherlink.com 1.10,2013-11-28 21:39:00,
2013-11-28 16:54:00,34.3,21.0,30.61,South,184,4.0,5.0,58,0.00,,,0.02,weatherlink.com 1.10,2013-11-28 21:54:00,
2013-11-28 17:10:00,32.8,20.0,30.61,South,186,2.0,5.0,60,0.00,,,0.02,weatherlink.com 1.10,2013-11-28 22:10:00,
2013-11-28 17:25:00,32.1,20.0,30.62,South,185,1.0,4.0,61,0.00,,,0.02,weatherlink.com 1.10,2013-11-28 22:25:00,
2013-11-28 17:40:00,31.5,20.0,30.62,South,179,3.0,4.0,63,0.00,,,0.02,weatherlink.com 1.10,2013-11-28 22:40:00,
2013-11-28 17:55:00,31.2,21.0,30.62,South,173,4.0,5.0,65,0.00,,,0.02,weatherlink.com 1.10,2013-11-28 22:55:00,
2013-11-28 18:09:00,31.1,20.0,30.63,SSE,161,1.0,4.0,63,0.00,,,0.02,weatherlink.com 1.10,2013-11-28 23:09:00,
2013-11-28 18:24:00,31.2,20.0,30.64,SSE,163,1.0,3.0,63,0.00,,,0.02,weatherlink.com 1.10,2013-11-28 23:24:00,
2013-11-28 18:40:00,31.2,20.0,30.64,SSE,164,1.0,4.0,63,0.00,,,0.02,weatherlink.com 1.10,2013-11-28 23:40:00,
2013-11-28 18:55:00,31.5,20.0,30.64,South,186,1.0,3.0,63,0.00,,,0.02,weatherlink.com 1.10,2013-11-28 23:55:00,
2013-11-28 19:09:00,31.6,20.0,30.64,South,184,1.0,4.0,62,0.00,,,0.02,weatherlink.com 1.10,2013-11-29 00:09:00,
2013-11-28 19:24:00,31.4,20.0,30.65,South,174,1.0,5.0,62,0.00,,,0.02,weatherlink.com 1.10,2013-11-29 00:24:00,
2013-11-28 19:39:00,31.2,20.0,30.65,SSW,193,3.0,5.0,63,0.00,,,0.02,weatherlink.com 1.10,2013-11-29 00:39:00,
2013-11-28 19:54:00,31.2,19.0,30.65,South,191,0.0,5.0,62,0.00,,,0.02,weatherlink.com 1.10,2013-11-29 00:54:00,
2013-11-28 20:09:00,31.1,19.0,30.65,South,191,1.0,3.0,61,0.00,,,0.02,weatherlink.com 1.10,2013-11-29 01:09:00,
2013-11-28 20:24:00,31.2,19.0,30.65,South,191,0.0,1.0,60,0.00,,,0.02,weatherlink.com 1.10,2013-11-29 01:24:00,
2013-11-28 20:39:00,31.0,18.0,30.66,South,191,0.0,1.0,60,0.00,,,0.02,weatherlink.com 1.10,2013-11-29 01:39:00,
2013-11-28 20:54:00,31.1,19.0,30.65,South,191,0.0,3.0,60,0.00,,,0.02,weatherlink.com 1.10,2013-11-29 01:54:00,
2013-11-28 21:09:00,30.9,19.0,30.65,South,191,3.0,3.0,61,0.00,,,0.02,weatherlink.com 1.10,2013-11-29 02:09:00,
2013-11-28 21:24:00,30.9,19.0,30.65,South,191,2.0,5.0,61,0.00,,,0.02,weatherlink.com 1.10,2013-11-29 02:24:00,
2013-11-28 21:39:00,30.8,19.0,30.65,SSW,192,2.0,3.0,61,0.00,,,0.02,weatherlink.com 1.10,2013-11-29 02:39:00,
2013-11-28 21:54:00,30.7,19.0,30.65,SSW,192,3.0,3.0,61,0.00,,,0.02,weatherlink.com 1.10,2013-11-29 02:54:00,
2013-11-28 22:10:00,30.5,18.0,30.65,SSW,192,0.0,4.0,61,0.00,,,0.02,weatherlink.com 1.10,2013-11-29 03:10:00,
2013-11-28 22:25:00,30.5,19.0,30.65,SSW,192,0.0,3.0,62,0.00,,,0.02,weatherlink.com 1.10,2013-11-29 03:25:00,
2013-11-28 22:40:00,30.5,18.0,30.65,SSW,192,0.0,2.0,61,0.00,,,0.02,weatherlink.com 1.10,2013-11-29 03:40:00,
2013-11-28 22:55:00,31.2,17.0,30.65,SSW,192,0.0,5.0,57,0.00,,,0.02,weatherlink.com 1.10,2013-11-29 03:55:00,
2013-11-28 23:10:00,31.3,17.0,30.65,SSW,192,0.0,2.0,56,0.00,,,0.02,weatherlink.com 1.10,2013-11-29 04:10:00,
2013-11-28 23:25:00,30.4,18.0,30.65,NNW,346,5.0,5.0,60,0.00,,,0.02,weatherlink.com 1.10,2013-11-29 04:25:00,
2013-11-28 23:40:00,28.7,19.0,30.65,North,5,4.0,6.0,66,0.00,,,0.02,weatherlink.com 1.10,2013-11-29 04:40:00,
2013-11-28 23:55:00,28.2,17.0,30.65,North,360,2.0,6.0,64,0.00,,,0.02,weatherlink.com 1.10,2013-11-29 04:55:00,